X  Fermer Données météorologiques d'aviation de Metar     EHRD Rotterdam The Hague Airport
Température
10°C Température
10°C Point de rosée
100% Humidité



Vent
3 KM/H
2 MPH
1 M/S
2 KTS



270°
Ouest
Conditions actuelles

Clair Clair
Pression 1026.92 (hPa) - 30.32 (inHg)
Visibilité 5 (mile) - 8 (km)
Aéroport
Code de l'aéroport EHRD

Emplacement: Rotterdam The Hague Airport
Distance: 16 (km)

Metar:
EHRD 130125Z AUTO 27002KT 8000 NCD 10/10 Q1027 TEMPO 4000 MIFG

Temps: 13-06-2021 03:25 CEST